createdAt,value
2023-01-06T00:01:10.275Z,4.60
2023-01-06T00:03:40.863Z,4.80
2023-01-06T00:06:14.101Z,4.10
2023-01-06T00:08:44.390Z,4.30
2023-01-06T00:11:16.293Z,4.50
2023-01-06T00:13:46.682Z,4.90
2023-01-06T00:16:18.872Z,4.30
2023-01-06T00:18:49.299Z,4.40
2023-01-06T00:21:19.646Z,4.30
2023-01-06T00:23:50.003Z,4.50
2023-01-06T00:26:20.450Z,4.00
2023-01-06T00:28:52.974Z,4.00
2023-01-06T00:31:23.924Z,5.50
2023-01-06T00:33:54.789Z,5.30
2023-01-06T00:36:25.413Z,4.80
2023-01-06T00:38:55.782Z,4.70
2023-01-06T00:41:44.097Z,5.50
2023-01-06T00:44:14.557Z,5.20
2023-01-06T00:46:45.110Z,5.40
2023-01-06T00:49:15.577Z,4.60
2023-01-06T00:51:46.125Z,5.40
2023-01-06T00:54:16.970Z,5.10
2023-01-06T00:56:49.226Z,5.40
2023-01-06T00:59:23.286Z,5.80
2023-01-06T01:01:55.917Z,5.80
2023-01-06T01:04:27.211Z,6.60
2023-01-06T01:06:57.594Z,5.90
2023-01-06T01:09:29.488Z,6.50
2023-01-06T01:12:12.803Z,5.50
2023-01-06T01:14:47.400Z,6.50
2023-01-06T01:17:20.166Z,7.80
2023-01-06T01:19:51.614Z,5.10
2023-01-06T01:22:22.445Z,6.80
2023-01-06T01:24:52.754Z,6.50
2023-01-06T01:27:23.099Z,6.70
2023-01-06T01:29:53.476Z,6.90
2023-01-06T01:32:23.850Z,6.60
2023-01-06T01:34:54.697Z,7.00
2023-01-06T01:37:25.188Z,6.10
2023-01-06T01:39:55.542Z,6.80
2023-01-06T01:42:25.897Z,6.30
2023-01-06T01:45:03.198Z,7.80
2023-01-06T01:47:46.154Z,6.20
2023-01-06T01:50:26.214Z,7.40
2023-01-06T01:52:59.831Z,7.10
2023-01-06T01:55:30.718Z,7.00
2023-01-06T01:58:03.784Z,6.40
2023-01-06T02:00:34.540Z,5.90
2023-01-06T02:03:05.432Z,6.20
2023-01-06T02:05:37.973Z,6.20
2023-01-06T02:08:15.035Z,6.20
2023-01-06T02:10:45.406Z,6.80
2023-01-06T02:13:16.481Z,6.50
2023-01-06T02:15:46.935Z,7.00
2023-01-06T02:18:30.633Z,6.80
2023-01-06T02:21:22.261Z,5.80
2023-01-06T02:24:23.466Z,5.70
2023-01-06T02:27:26.155Z,5.80
2023-01-06T02:30:16.869Z,5.20
2023-01-06T02:32:58.558Z,6.10
2023-01-06T02:35:57.994Z,5.00
2023-01-06T02:38:39.283Z,3.10
2023-01-06T02:41:18.567Z,4.60
2023-01-06T02:44:00.740Z,4.50
2023-01-06T02:46:43.162Z,3.20
2023-01-06T02:49:20.093Z,3.70
2023-01-06T02:51:55.165Z,4.30
2023-01-06T02:54:31.456Z,3.30
2023-01-06T02:57:07.945Z,2.40
2023-01-06T02:59:40.823Z,2.70
2023-01-06T03:02:11.978Z,2.60
2023-01-06T03:04:44.872Z,2.50
2023-01-06T03:09:44.599Z,2.00
2023-01-06T03:12:17.808Z,1.80
2023-01-06T03:14:49.933Z,1.60
2023-01-06T03:17:20.521Z,1.70
2023-01-06T03:19:51.450Z,1.60
2023-01-06T03:22:22.399Z,1.10
2023-01-06T03:24:52.757Z,1.20
2023-01-06T03:27:27.763Z,1.20
2023-01-06T03:29:58.889Z,1.20
2023-01-06T03:32:33.416Z,0.90
2023-01-06T03:35:16.872Z,0.80
2023-01-06T03:37:54.200Z,0.60
2023-01-06T03:40:32.302Z,1.20
2023-01-06T03:43:16.450Z,0.70
2023-01-06T03:45:56.311Z,0.90
2023-01-06T03:51:10.057Z,0.70
2023-01-06T03:53:46.661Z,0.80
2023-01-06T03:56:20.151Z,0.70
2023-01-06T03:58:53.657Z,0.90
2023-01-06T04:01:24.995Z,1.00
2023-01-06T04:03:56.328Z,1.10
2023-01-06T04:06:29.347Z,1.10
2023-01-06T04:08:59.731Z,1.10
2023-01-06T04:11:47.579Z,1.30
2023-01-06T04:14:17.992Z,1.60
2023-01-06T04:16:48.681Z,1.40
2023-01-06T04:19:19.093Z,1.80
2023-01-06T04:21:50.110Z,2.10
2023-01-06T04:24:20.922Z,2.30
2023-01-06T04:26:51.405Z,2.00
2023-01-06T04:29:23.012Z,3.00
2023-01-06T04:31:56.221Z,2.60
2023-01-06T04:34:26.726Z,2.70
2023-01-06T04:36:57.403Z,3.00
2023-01-06T04:39:28.002Z,2.50
2023-01-06T04:41:58.447Z,2.30
2023-01-06T04:44:28.819Z,2.30
2023-01-06T04:46:59.157Z,2.70
2023-01-06T04:49:29.589Z,2.60
2023-01-06T04:51:59.905Z,2.50
2023-01-06T04:54:30.305Z,2.60
2023-01-06T04:57:00.639Z,2.50
2023-01-06T04:59:31.247Z,2.80
2023-01-06T05:02:01.616Z,2.60
2023-01-06T05:04:40.035Z,2.10
2023-01-06T05:07:17.371Z,2.30
2023-01-06T05:09:47.987Z,1.40
2023-01-06T05:12:18.504Z,2.20
2023-01-06T05:14:48.804Z,2.50
2023-01-06T05:17:19.106Z,2.40
2023-01-06T05:19:49.487Z,2.30
2023-01-06T05:22:19.858Z,1.80
2023-01-06T05:24:50.183Z,1.90
2023-01-06T05:27:20.590Z,1.60
2023-01-06T05:29:51.074Z,2.00
2023-01-06T05:32:21.490Z,1.90
2023-01-06T05:34:51.811Z,1.50
2023-01-06T05:37:22.183Z,1.50
2023-01-06T05:39:52.558Z,1.20
2023-01-06T05:42:22.806Z,1.20
2023-01-06T05:44:53.118Z,1.50
2023-01-06T05:47:23.664Z,1.60
2023-01-06T05:49:53.985Z,1.20
2023-01-06T05:52:24.489Z,1.40
2023-01-06T05:54:54.829Z,1.20
2023-01-06T05:57:25.101Z,1.10
2023-01-06T05:59:55.416Z,1.20
2023-01-06T06:02:25.774Z,1.20
2023-01-06T06:04:56.108Z,2.20
2023-01-06T06:07:26.431Z,1.20
2023-01-06T06:09:56.852Z,1.20
2023-01-06T06:12:27.218Z,0.80
2023-01-06T06:14:57.514Z,1.00
2023-01-06T06:17:27.946Z,1.20
2023-01-06T06:19:58.338Z,1.20
2023-01-06T06:22:28.677Z,0.90
2023-01-06T06:24:59.210Z,0.90
2023-01-06T06:27:30.058Z,1.00
2023-01-06T06:30:00.457Z,0.80
2023-01-06T06:32:33.272Z,0.80
2023-01-06T06:35:03.671Z,0.70
2023-01-06T06:37:33.989Z,1.00
2023-01-06T06:40:04.782Z,0.80
2023-01-06T06:42:35.253Z,1.70
2023-01-06T06:45:06.495Z,0.70
2023-01-06T06:47:37.813Z,0.70
2023-01-06T06:50:10.386Z,0.70
2023-01-06T06:52:40.672Z,0.70
2023-01-06T06:55:12.225Z,0.40
2023-01-06T06:57:42.617Z,0.80
2023-01-06T07:00:15.119Z,0.60
2023-01-06T07:02:45.457Z,0.80
2023-01-06T07:05:16.012Z,0.50
2023-01-06T07:07:46.559Z,0.70
2023-01-06T07:10:18.004Z,0.90
2023-01-06T07:12:48.314Z,1.00
2023-01-06T07:15:18.988Z,1.20
2023-01-06T07:17:49.357Z,1.30
2023-01-06T07:20:20.811Z,1.30
2023-01-06T07:22:53.127Z,0.90
2023-01-06T07:25:24.816Z,1.60
2023-01-06T07:28:00.357Z,1.00
2023-01-06T07:30:32.839Z,1.00
2023-01-06T07:33:04.630Z,0.90
2023-01-06T07:35:36.859Z,1.20
2023-01-06T07:38:10.401Z,0.90
2023-01-06T07:40:42.856Z,1.10
2023-01-06T07:43:15.159Z,1.30
2023-01-06T07:45:48.911Z,1.00
2023-01-06T07:48:20.212Z,1.30
2023-01-06T07:50:52.886Z,0.80
2023-01-06T07:53:25.168Z,1.10
2023-01-06T07:55:56.885Z,1.00
2023-01-06T07:58:28.790Z,1.00
2023-01-06T08:01:05.946Z,1.00
2023-01-06T08:03:37.182Z,1.20
2023-01-06T08:06:13.923Z,1.60
2023-01-06T08:08:45.785Z,1.20
2023-01-06T08:11:16.855Z,1.10
2023-01-06T08:13:49.235Z,1.50
2023-01-06T08:16:21.922Z,1.00
2023-01-06T08:18:53.253Z,1.20
2023-01-06T08:27:44.332Z,1.50
2023-01-06T08:30:21.438Z,1.30
2023-01-06T08:32:51.947Z,1.30
2023-01-06T08:35:22.330Z,1.30
2023-01-06T08:37:52.696Z,1.40
2023-01-06T08:40:23.009Z,1.40
2023-01-06T08:42:53.417Z,1.50
2023-01-06T08:45:23.709Z,1.50
2023-01-06T08:47:54.016Z,1.40
2023-01-06T08:50:25.893Z,1.50
2023-01-06T08:52:56.926Z,1.40
2023-01-06T08:55:27.335Z,1.20
2023-01-06T08:57:57.729Z,1.20
2023-01-06T09:00:28.102Z,1.10
2023-01-06T09:02:58.435Z,1.00
2023-01-06T09:05:28.818Z,1.10
2023-01-06T09:07:59.276Z,1.20
2023-01-06T09:10:29.971Z,1.30
2023-01-06T09:13:00.399Z,1.00
2023-01-06T09:15:30.754Z,1.10
2023-01-06T09:18:01.052Z,1.10
2023-01-06T09:20:33.576Z,1.30
2023-01-06T09:23:04.079Z,1.20
2023-01-06T09:25:34.469Z,1.20
2023-01-06T09:28:04.839Z,1.40
2023-01-06T09:30:35.270Z,1.40
2023-01-06T09:33:05.800Z,1.40
2023-01-06T09:35:36.185Z,1.10
2023-01-06T09:38:06.519Z,1.30
2023-01-06T09:40:46.548Z,1.10
2023-01-06T09:43:24.924Z,1.20
2023-01-06T09:45:57.357Z,2.20
2023-01-06T09:48:30.792Z,1.10
2023-01-06T09:51:04.543Z,1.00
2023-01-06T09:53:38.920Z,1.90
2023-01-06T09:56:13.394Z,1.00
2023-01-06T09:58:46.987Z,0.90
2023-01-06T10:01:20.593Z,1.40
2023-01-06T10:03:51.027Z,0.90
2023-01-06T10:06:30.922Z,1.00
2023-01-06T10:09:08.401Z,0.80
2023-01-06T10:11:47.346Z,1.20
2023-01-06T10:14:22.529Z,0.90
2023-01-06T10:17:06.536Z,1.80
2023-01-06T10:19:51.790Z,0.70
2023-01-06T10:22:29.381Z,0.70
2023-01-06T10:25:05.935Z,0.70
2023-01-06T10:27:39.187Z,0.80
2023-01-06T10:30:19.690Z,1.10
2023-01-06T10:32:51.164Z,1.20
2023-01-06T10:35:30.325Z,1.30
2023-01-06T10:38:04.052Z,1.30
2023-01-06T10:40:36.257Z,1.20
2023-01-06T10:43:09.157Z,0.90
2023-01-06T10:48:14.558Z,1.10
2023-01-06T10:50:45.292Z,0.90
2023-01-06T10:53:17.439Z,0.80
2023-01-06T10:55:50.850Z,0.80
2023-01-06T10:58:26.794Z,0.80
2023-01-06T11:01:00.219Z,0.70
2023-01-06T11:03:33.694Z,1.20
2023-01-06T11:06:08.790Z,0.80
2023-01-06T11:08:39.738Z,0.80
2023-01-06T11:11:27.241Z,0.60
2023-01-06T11:14:00.543Z,0.70
2023-01-06T11:16:32.569Z,0.60
2023-01-06T11:19:05.618Z,0.70
2023-01-06T11:21:46.774Z,0.70
2023-01-06T11:24:22.197Z,0.60
2023-01-06T11:26:56.852Z,0.40
2023-01-06T11:29:33.247Z,0.60
2023-01-06T11:32:06.808Z,0.50
2023-01-06T11:34:37.095Z,0.50
2023-01-06T11:37:07.794Z,0.50
2023-01-06T11:39:40.848Z,0.40
2023-01-06T11:42:15.266Z,0.60
2023-01-06T11:47:18.753Z,0.60
2023-01-06T11:49:52.200Z,0.70
2023-01-06T11:52:26.196Z,0.60
2023-01-06T11:55:12.841Z,0.60
2023-01-06T11:57:47.571Z,0.50
2023-01-06T12:00:33.229Z,0.50
2023-01-06T12:03:07.645Z,0.50
2023-01-06T12:05:46.302Z,0.50
2023-01-06T12:08:21.430Z,0.70
2023-01-06T12:10:56.875Z,0.50
2023-01-06T12:13:28.144Z,0.50
2023-01-06T12:16:03.381Z,0.50
2023-01-06T12:18:36.076Z,0.60
2023-01-06T12:21:07.524Z,0.60
2023-01-06T12:23:40.479Z,0.70
2023-01-06T12:26:16.722Z,0.70
2023-01-06T12:28:48.636Z,0.70
2023-01-06T12:31:27.776Z,1.00
2023-01-06T12:34:04.441Z,0.60
2023-01-06T12:36:39.296Z,0.60
2023-01-06T12:39:14.597Z,0.70
2023-01-06T12:41:50.726Z,0.60
2023-01-06T12:44:28.483Z,0.60
2023-01-06T12:47:02.907Z,0.60
2023-01-06T12:49:39.806Z,0.70
2023-01-06T12:52:13.295Z,0.40
2023-01-06T12:54:46.069Z,0.40
2023-01-06T12:57:26.420Z,0.60
2023-01-06T13:00:08.418Z,0.60
2023-01-06T13:02:56.356Z,0.60
2023-01-06T13:05:35.603Z,0.90
2023-01-06T13:08:20.488Z,1.00
2023-01-06T13:10:53.987Z,0.60
2023-01-06T13:13:47.187Z,0.60
2023-01-06T13:18:51.358Z,0.50
2023-01-06T13:21:22.696Z,0.50
2023-01-06T13:24:06.918Z,0.90
2023-01-06T13:26:57.933Z,0.70
2023-01-06T13:29:37.710Z,0.60
2023-01-06T13:32:32.516Z,0.50
2023-01-06T13:35:31.898Z,0.50
2023-01-06T13:38:14.123Z,0.60
2023-01-06T13:40:45.246Z,0.50
2023-01-06T13:43:21.429Z,0.50
2023-01-06T13:45:54.512Z,0.70
2023-01-06T13:48:27.663Z,0.50
2023-01-06T13:50:59.137Z,1.40
2023-01-06T13:53:30.107Z,0.60
2023-01-06T13:56:31.059Z,0.60
2023-01-06T13:59:22.360Z,0.40
2023-01-06T14:01:53.297Z,0.60
2023-01-06T14:04:48.456Z,0.50
2023-01-06T14:07:34.376Z,0.60
2023-01-06T14:10:06.164Z,0.50
2023-01-06T14:12:37.684Z,0.60
2023-01-06T14:15:19.565Z,0.60
2023-01-06T14:17:49.981Z,0.70
2023-01-06T14:20:29.810Z,0.50
2023-01-06T14:23:05.473Z,0.60
2023-01-06T14:25:40.358Z,0.60
2023-01-06T14:28:29.030Z,0.60
2023-01-06T14:31:48.741Z,0.50
2023-01-06T14:34:23.822Z,0.70
2023-01-06T14:36:56.925Z,0.70
2023-01-06T14:39:29.314Z,0.70
2023-01-06T14:42:03.952Z,0.60
2023-01-06T14:44:38.441Z,0.60
2023-01-06T14:47:14.516Z,0.70
2023-01-06T14:49:51.077Z,0.50
2023-01-06T14:52:24.585Z,0.80
2023-01-06T14:54:55.847Z,1.10
2023-01-06T14:57:35.899Z,0.90
2023-01-06T15:00:18.470Z,0.80
2023-01-06T15:02:50.976Z,1.30
2023-01-06T15:05:23.316Z,0.90
2023-01-06T15:08:01.439Z,0.80
2023-01-06T15:10:35.361Z,0.90
2023-01-06T15:13:16.005Z,0.60
2023-01-06T15:15:46.736Z,0.70
2023-01-06T15:18:17.434Z,0.70
2023-01-06T15:20:48.624Z,1.00
2023-01-06T15:23:21.417Z,0.60
2023-01-06T15:25:53.199Z,0.60
2023-01-06T15:28:28.432Z,0.90
2023-01-06T15:30:59.464Z,0.80
2023-01-06T15:33:34.378Z,0.80
2023-01-06T15:36:05.496Z,0.80
2023-01-06T15:38:37.484Z,0.60
2023-01-06T15:41:28.735Z,0.90
2023-01-06T15:43:59.575Z,0.70
2023-01-06T15:46:38.795Z,0.80
2023-01-06T15:49:17.919Z,0.60
2023-01-06T15:51:56.150Z,0.70
2023-01-06T15:54:28.390Z,0.70
2023-01-06T15:57:11.519Z,0.90
2023-01-06T15:59:55.953Z,0.90
2023-01-06T16:02:30.135Z,0.90
2023-01-06T16:05:02.225Z,0.60
2023-01-06T16:07:43.259Z,0.80
2023-01-06T16:10:32.080Z,0.80
2023-01-06T16:13:26.036Z,0.90
2023-01-06T16:15:59.232Z,0.80
2023-01-06T16:18:32.132Z,1.40
2023-01-06T16:23:34.163Z,0.80
2023-01-06T16:28:52.530Z,1.10
2023-01-06T16:31:34.127Z,0.90
2023-01-06T16:34:27.746Z,0.90
2023-01-06T16:37:00.005Z,0.70
2023-01-06T16:39:30.672Z,0.70
2023-01-06T16:42:43.361Z,1.10
2023-01-06T16:45:21.953Z,0.90
2023-01-06T16:47:52.810Z,1.10
2023-01-06T16:50:25.909Z,0.80
2023-01-06T16:53:07.389Z,1.10
2023-01-06T16:55:38.690Z,1.00
2023-01-06T16:58:16.677Z,1.10
2023-01-06T17:00:51.816Z,0.80
2023-01-06T17:03:23.907Z,0.80
2023-01-06T17:05:54.351Z,1.20
2023-01-06T17:08:29.360Z,1.40
2023-01-06T17:11:04.015Z,1.20
2023-01-06T17:13:39.611Z,1.40
2023-01-06T17:16:16.709Z,1.50
2023-01-06T17:18:53.295Z,1.70
2023-01-06T17:21:25.774Z,1.90
2023-01-06T17:23:58.609Z,1.90
2023-01-06T17:28:59.514Z,1.60
2023-01-06T17:31:33.242Z,1.90
2023-01-06T17:34:16.227Z,1.90
2023-01-06T17:36:48.114Z,2.30
2023-01-06T17:39:22.763Z,2.00
2023-01-06T17:41:59.416Z,1.90
2023-01-06T17:44:37.752Z,2.30
2023-01-06T17:47:17.965Z,2.40
2023-01-06T17:49:50.770Z,2.30
2023-01-06T17:52:22.531Z,2.00
2023-01-06T17:55:16.154Z,2.30
2023-01-06T17:57:47.474Z,2.20
2023-01-06T18:00:25.694Z,2.30
2023-01-06T18:02:58.823Z,2.20
2023-01-06T18:06:13.592Z,2.10
2023-01-06T18:08:44.467Z,2.10
2023-01-06T18:11:31.214Z,3.10
2023-01-06T18:14:15.217Z,2.10
2023-01-06T18:16:47.642Z,2.10
2023-01-06T18:19:33.167Z,2.20
2023-01-06T18:22:06.467Z,2.60
2023-01-06T18:24:39.091Z,2.10
2023-01-06T18:27:20.515Z,2.50
2023-01-06T18:29:50.962Z,2.60
2023-01-06T18:32:32.333Z,2.10
2023-01-06T18:35:05.753Z,2.20
2023-01-06T18:37:37.863Z,2.40
2023-01-06T18:40:12.754Z,2.40
2023-01-06T18:42:44.842Z,2.00
2023-01-06T18:45:22.540Z,2.30
2023-01-06T18:47:55.506Z,1.90
2023-01-06T18:50:37.954Z,2.10
2023-01-06T18:53:19.468Z,2.30
2023-01-06T18:55:51.239Z,2.50
2023-01-06T18:58:46.118Z,2.40
2023-01-06T19:01:20.159Z,2.60
2023-01-06T19:03:59.789Z,2.40
2023-01-06T19:06:39.931Z,2.40
2023-01-06T19:09:20.277Z,2.30
2023-01-06T19:11:55.690Z,2.30
2023-01-06T19:14:26.173Z,2.30
2023-01-06T19:16:57.411Z,2.10
2023-01-06T19:19:33.066Z,2.60
2023-01-06T19:22:22.950Z,2.70
2023-01-06T19:24:56.654Z,2.80
2023-01-06T19:27:43.087Z,2.90
2023-01-06T19:30:40.461Z,2.50
2023-01-06T19:33:23.162Z,2.60
2023-01-06T19:35:58.025Z,2.40
2023-01-06T19:38:30.484Z,3.10
2023-01-06T19:41:02.473Z,2.70
2023-01-06T19:43:34.575Z,2.80
2023-01-06T19:46:11.129Z,2.60
2023-01-06T19:48:43.178Z,2.10
2023-01-06T19:51:25.955Z,2.60
2023-01-06T19:53:58.513Z,2.40
2023-01-06T19:56:30.788Z,2.40
2023-01-06T19:59:04.104Z,2.90
2023-01-06T20:01:35.456Z,2.70
2023-01-06T20:04:11.594Z,2.40
2023-01-06T20:06:41.983Z,2.70
2023-01-06T20:09:12.347Z,3.00
2023-01-06T20:11:43.308Z,3.70
2023-01-06T20:14:16.753Z,3.20
2023-01-06T20:16:47.581Z,3.00
2023-01-06T20:19:18.247Z,3.10
2023-01-06T20:21:48.664Z,2.60
2023-01-06T20:24:19.251Z,2.80
2023-01-06T20:26:49.873Z,2.90
2023-01-06T20:29:20.186Z,2.80
2023-01-06T20:31:50.731Z,2.90
2023-01-06T20:34:21.431Z,2.60
2023-01-06T20:36:52.006Z,2.40
2023-01-06T20:39:22.465Z,2.80
2023-01-06T20:41:52.806Z,2.60
2023-01-06T20:44:23.194Z,3.00
2023-01-06T20:46:53.963Z,3.70
2023-01-06T20:49:24.308Z,2.60
2023-01-06T20:51:54.726Z,2.70
2023-01-06T20:54:25.050Z,3.00
2023-01-06T20:56:55.386Z,3.90
2023-01-06T20:59:25.806Z,3.50
2023-01-06T21:01:56.399Z,3.50
2023-01-06T21:04:27.091Z,3.60
2023-01-06T21:06:58.014Z,3.90
2023-01-06T21:09:29.329Z,3.60
2023-01-06T21:11:59.788Z,2.90
2023-01-06T21:14:30.954Z,3.90
2023-01-06T21:17:01.410Z,3.30
2023-01-06T21:19:32.177Z,3.40
2023-01-06T21:22:02.589Z,3.30
2023-01-06T21:24:32.965Z,3.30
2023-01-06T21:27:03.396Z,3.50
2023-01-06T21:29:33.774Z,3.40
2023-01-06T21:32:04.479Z,2.80
2023-01-06T21:34:34.931Z,3.10
2023-01-06T21:37:05.615Z,3.10
2023-01-06T21:39:36.231Z,3.50
2023-01-06T21:42:24.461Z,3.30
2023-01-06T21:44:54.988Z,3.10
2023-01-06T21:47:25.502Z,3.00
2023-01-06T21:49:56.039Z,3.70
2023-01-06T21:52:26.422Z,3.30
2023-01-06T21:54:59.038Z,3.30
2023-01-06T21:57:30.385Z,3.30
2023-01-06T22:00:01.310Z,3.50
2023-01-06T22:02:31.792Z,3.40
2023-01-06T22:05:02.328Z,3.70
2023-01-06T22:07:33.649Z,3.80
2023-01-06T22:10:06.107Z,3.90
2023-01-06T22:12:37.040Z,3.50
2023-01-06T22:15:09.930Z,3.70
2023-01-06T22:20:11.709Z,3.80
2023-01-06T22:25:12.433Z,3.70
2023-01-06T22:27:42.967Z,4.30
2023-01-06T22:30:14.432Z,3.50
2023-01-06T22:32:48.999Z,3.90
2023-01-06T22:35:20.538Z,3.90
2023-01-06T22:37:51.019Z,3.80
2023-01-06T22:40:21.767Z,3.70
2023-01-06T22:42:52.309Z,4.00
2023-01-06T22:45:22.769Z,4.00
2023-01-06T22:47:53.423Z,3.50
2023-01-06T22:50:23.819Z,3.40
2023-01-06T22:52:54.627Z,3.90
2023-01-06T22:55:25.090Z,3.90
2023-01-06T22:57:55.391Z,3.60
2023-01-06T23:00:25.704Z,4.50
2023-01-06T23:02:57.772Z,5.80
2023-01-06T23:05:28.975Z,4.60
2023-01-06T23:07:59.427Z,4.40
2023-01-06T23:10:29.859Z,4.40
2023-01-06T23:13:00.471Z,4.70
2023-01-06T23:15:30.820Z,4.90
2023-01-06T23:18:01.188Z,4.80
2023-01-06T23:20:31.618Z,5.30
2023-01-06T23:23:01.934Z,4.70
2023-01-06T23:25:32.268Z,5.10
2023-01-06T23:28:02.696Z,5.20
2023-01-06T23:30:33.338Z,4.80
2023-01-06T23:33:03.881Z,4.90
2023-01-06T23:35:34.358Z,4.00
2023-01-06T23:38:04.700Z,4.80
2023-01-06T23:40:34.992Z,5.30
2023-01-06T23:43:05.805Z,4.20
2023-01-06T23:45:36.183Z,4.40
2023-01-06T23:48:07.026Z,4.50
2023-01-06T23:50:37.467Z,4.30
2023-01-06T23:53:07.924Z,4.50
2023-01-06T23:55:38.375Z,4.30
2023-01-06T23:58:08.935Z,3.50
